Time;durP1;ratioP1;P1;durP2;ratioP2;P2;SDS_P1;SDS_P2;PMS_P1;PMS_P2;Temp;Humidity;BMP_temperature;BMP_pressure;BME280_temperature;BME280_humidity;BME280_pressure;Samples;Min_cycle;Max_cycle;Signal;HPM_P1;HPM_P2
2022/08/15 00:01:23;;;;;;;11.18;8.38;;;22.90;99.90;;;;;;5051495;28;20048;-79
2022/08/15 00:04:09;;;;;;;11.25;8.90;;;22.90;99.90;;;;;;5019078;28;20057;-79
2022/08/15 00:06:55;;;;;;;10.60;7.30;;;22.90;99.90;;;;;;5048835;28;20061;-80
2022/08/15 00:09:41;;;;;;;11.95;7.45;;;22.90;99.90;;;;;;5049474;28;20409;-79
2022/08/15 00:12:27;;;;;;;10.18;8.32;;;22.80;99.90;;;;;;5031202;28;20064;-79
2022/08/15 00:15:18;;;;;;;13.00;8.82;;;22.80;99.90;;;;;;5050356;28;20053;-80
2022/08/15 00:18:05;;;;;;;11.40;8.90;;;22.70;99.90;;;;;;5050579;28;20060;-78
2022/08/15 00:20:52;;;;;;;10.77;7.78;;;22.70;99.90;;;;;;5031582;28;20051;-79
2022/08/15 00:23:40;;;;;;;10.50;8.30;;;22.60;99.90;;;;;;5030887;28;20048;-78
2022/08/15 00:26:26;;;;;;;9.25;7.70;;;22.60;99.90;;;;;;5049142;28;20481;-77
2022/08/15 00:29:13;;;;;;;10.57;8.55;;;22.60;99.90;;;;;;5018014;28;20045;-78
2022/08/15 00:32:00;;;;;;;10.20;7.30;;;22.50;99.90;;;;;;5049509;28;20083;-78
2022/08/15 00:34:46;;;;;;;23.58;8.38;;;22.50;99.90;;;;;;5049138;28;20140;-77
2022/08/15 00:37:33;;;;;;;10.65;7.03;;;22.50;99.90;;;;;;5049183;28;20048;-78
2022/08/15 00:40:19;;;;;;;8.63;7.05;;;22.40;99.90;;;;;;5049005;28;20126;-78
2022/08/15 00:43:05;;;;;;;10.32;8.65;;;22.40;99.90;;;;;;5042167;28;20084;-79
2022/08/15 00:45:53;;;;;;;10.40;7.75;;;22.40;99.90;;;;;;5047021;28;20507;-79
2022/08/15 00:48:42;;;;;;;11.73;8.00;;;22.40;99.90;;;;;;5047232;28;20049;-79
2022/08/15 00:51:35;;;;;;;10.35;7.65;;;22.30;99.90;;;;;;5029709;28;20053;-80
2022/08/15 00:54:28;;;;;;;11.45;9.07;;;22.30;99.90;;;;;;5041068;28;20497;-77
2022/08/15 00:57:25;;;;;;;9.57;7.50;;;22.20;99.90;;;;;;5031256;28;20075;-80
2022/08/15 01:00:20;;;;;;;9.38;7.60;;;22.20;99.90;;;;;;5031221;28;20060;-79
2022/08/15 01:03:08;;;;;;;;;;;22.10;99.90;;;;;;5017549;28;20514;-78
2022/08/15 01:05:59;;;;;;;11.80;8.68;;;22.10;99.90;;;;;;5052009;28;19935;-80
2022/08/15 01:08:46;;;;;;;10.45;8.35;;;22.00;99.90;;;;;;5034204;28;20056;-79
2022/08/15 01:11:44;;;;;;;10.95;8.13;;;22.00;99.90;;;;;;5053090;28;20076;-77
2022/08/15 01:14:31;;;;;;;10.50;7.80;;;22.00;99.90;;;;;;5034969;28;20052;-78
2022/08/15 01:17:19;;;;;;;8.50;7.45;;;21.90;99.90;;;;;;5053504;28;20044;-78
2022/08/15 01:20:30;;;;;;;9.63;8.48;;;21.90;99.90;;;;;;5053269;28;20111;-77
2022/08/15 01:23:44;;;;;;;14.90;9.05;;;21.90;99.90;;;;;;5034632;28;20048;-78
2022/08/15 01:26:32;;;;;;;9.70;8.07;;;21.80;99.90;;;;;;5034232;28;20044;-78
2022/08/15 01:29:19;;;;;;;10.30;8.40;;;21.70;99.90;;;;;;5033797;28;20049;-79
2022/08/15 01:32:05;;;;;;;12.02;8.80;;;21.70;99.90;;;;;;5052458;28;20858;-77
2022/08/15 01:34:52;;;;;;;10.60;8.13;;;21.70;99.90;;;;;;5034334;28;20090;-78
2022/08/15 01:37:40;;;;;;;13.40;8.98;;;21.60;99.90;;;;;;5052040;28;20041;-78
2022/08/15 01:40:47;;;;;;;11.20;9.85;;;21.60;99.90;;;;;;5050905;28;20539;-75
2022/08/15 01:43:39;;;;;;;10.93;8.93;;;21.60;99.90;;;;;;5050854;28;20045;-77
2022/08/15 01:46:30;;;;;;;15.55;9.48;;;21.60;99.90;;;;;;5020532;28;20057;-77
2022/08/15 01:49:27;;;;;;;12.60;9.07;;;21.50;99.90;;;;;;5034884;28;20053;-78
2022/08/15 01:52:16;;;;;;;10.50;9.38;;;21.50;99.90;;;;;;5051715;28;20064;-76
2022/08/15 01:55:04;;;;;;;12.35;9.27;;;21.40;99.90;;;;;;5034266;28;20091;-76
2022/08/15 01:57:50;;;;;;;14.18;10.00;;;21.40;99.90;;;;;;5051895;28;20061;-76
2022/08/15 02:00:37;;;;;;;14.60;10.13;;;21.40;99.90;;;;;;5035429;28;20049;-75
2022/08/15 02:03:33;;;;;;;13.80;9.93;;;21.40;99.90;;;;;;5051923;28;20053;-75
2022/08/15 02:06:25;;;;;;;13.70;9.57;;;21.30;99.90;;;;;;5036788;28;20403;-77
2022/08/15 02:09:15;;;;;;;14.93;9.82;;;21.30;99.90;;;;;;5036107;28;20110;-76
2022/08/15 02:12:05;;;;;;;14.95;11.13;;;21.20;99.90;;;;;;5033546;28;20048;-76
2022/08/15 02:14:51;;;;;;;12.27;10.88;;;21.20;99.90;;;;;;5051878;28;20049;-76
2022/08/15 02:17:38;;;;;;;16.42;11.68;;;21.20;99.90;;;;;;5051682;28;20091;-78
2022/08/15 02:20:24;;;;;;;15.38;11.27;;;21.20;99.90;;;;;;5051289;28;20051;-76
2022/08/15 02:23:10;;;;;;;14.73;12.02;;;21.20;99.90;;;;;;5051875;28;20056;-76
2022/08/15 02:25:56;;;;;;;13.85;12.10;;;21.20;99.90;;;;;;5021268;28;20151;-79
2022/08/15 02:28:44;;;;;;;13.32;11.52;;;21.20;99.90;;;;;;5034078;28;20488;-78
2022/08/15 02:31:31;;;;;;;15.18;10.68;;;21.20;99.90;;;;;;5053025;28;20060;-78
2022/08/15 02:34:18;;;;;;;12.65;10.15;;;21.20;99.90;;;;;;5035049;28;20057;-79
2022/08/15 02:37:05;;;;;;;15.57;11.63;;;21.20;99.90;;;;;;5037118;28;20477;-76
2022/08/15 02:39:52;;;;;;;20.55;10.95;;;21.20;99.90;;;;;;5051564;28;20053;-77
2022/08/15 02:42:39;;;;;;;13.05;10.68;;;21.20;99.90;;;;;;5032389;28;20080;-77
2022/08/15 02:45:25;;;;;;;14.70;11.23;;;21.10;99.90;;;;;;5049597;28;20053;-77
2022/08/15 02:48:11;;;;;;;13.27;11.13;;;21.10;99.90;;;;;;5049910;28;20106;-76
2022/08/15 02:50:58;;;;;;;16.67;12.57;;;21.10;99.90;;;;;;5033463;28;20053;-78
2022/08/15 02:53:51;;;;;;;13.23;11.80;;;21.10;99.90;;;;;;5051270;28;20048;-78
2022/08/15 02:56:38;;;;;;;15.13;12.40;;;21.10;99.90;;;;;;5051063;28;20048;-77
2022/08/15 02:59:24;;;;;;;18.73;12.07;;;21.10;99.90;;;;;;5051457;28;20076;-78
2022/08/15 03:02:12;;;;;;;14.27;11.18;;;21.10;99.90;;;;;;5031889;28;20591;-77
2022/08/15 03:05:02;;;;;;;14.68;12.40;;;21.10;99.90;;;;;;5049836;28;20162;-77
2022/08/15 03:07:48;;;;;;;14.93;11.82;;;21.10;99.90;;;;;;5033218;28;20049;-78
2022/08/15 03:10:37;;;;;;;18.15;13.02;;;21.10;99.90;;;;;;5033797;28;20115;-78
2022/08/15 03:13:23;;;;;;;15.88;13.40;;;21.00;99.90;;;;;;5049902;28;20082;-77
2022/08/15 03:16:11;;;;;;;17.30;12.77;;;21.00;99.90;;;;;;5019479;28;20068;-78
2022/08/15 03:18:57;;;;;;;16.75;13.18;;;21.00;99.90;;;;;;5031640;28;20492;-77
2022/08/15 03:21:44;;;;;;;18.20;13.82;;;21.10;99.90;;;;;;5036167;28;20080;-77
2022/08/15 03:24:32;;;;;;;15.90;12.38;;;21.00;99.90;;;;;;5050037;28;20132;-77
2022/08/15 03:27:19;;;;;;;17.65;14.23;;;21.00;99.90;;;;;;5052304;28;20056;-78
2022/08/15 03:30:07;;;;;;;16.30;13.40;;;21.00;99.90;;;;;;5049579;28;20061;-78
2022/08/15 03:32:58;;;;;;;17.15;13.80;;;21.00;99.90;;;;;;5031508;28;20048;-78
2022/08/15 03:35:48;;;;;;;15.80;12.93;;;21.00;99.90;;;;;;5049766;28;20515;-77
2022/08/15 03:38:34;;;;;;;15.98;13.65;;;21.10;99.90;;;;;;5031967;28;20067;-78
2022/08/15 03:41:21;;;;;;;17.08;12.95;;;21.10;99.90;;;;;;5049701;28;20132;-77
2022/08/15 03:44:07;;;;;;;17.75;12.43;;;21.10;99.90;;;;;;5049580;28;20045;-77
2022/08/15 03:46:55;;;;;;;15.52;12.95;;;21.20;99.90;;;;;;5050160;28;20053;-78
2022/08/15 03:49:41;;;;;;;18.85;14.38;;;21.20;99.90;;;;;;5051827;28;20107;-78
2022/08/15 03:52:27;;;;;;;18.58;12.77;;;21.20;99.90;;;;;;5011943;28;20149;-78
2022/08/15 03:55:14;;;;;;;17.20;13.90;;;21.20;99.90;;;;;;5030848;28;20049;-78
2022/08/15 03:58:00;;;;;;;18.60;13.63;;;21.20;99.90;;;;;;5030181;28;20045;-78
2022/08/15 04:00:48;;;;;;;20.45;14.15;;;21.20;99.90;;;;;;4999157;28;20045;-80
2022/08/15 04:03:35;;;;;;;15.07;11.73;;;21.30;99.90;;;;;;5030594;28;20053;-79
2022/08/15 04:06:23;;;;;;;13.63;10.57;;;21.30;99.90;;;;;;5030573;28;20056;-78
2022/08/15 04:09:10;;;;;;;15.80;11.48;;;21.30;99.90;;;;;;5015824;28;20056;-79
2022/08/15 04:11:58;;;;;;;14.98;11.52;;;21.30;99.90;;;;;;5016049;28;20049;-76
2022/08/15 04:14:45;;;;;;;15.80;12.43;;;21.30;99.90;;;;;;5030311;28;20041;-80
2022/08/15 04:17:31;;;;;;;13.95;11.30;;;21.30;99.90;;;;;;5013217;28;20456;-78
2022/08/15 04:20:18;;;;;;;14.00;12.25;;;21.30;99.90;;;;;;5012615;28;20119;-79
2022/08/15 04:23:05;;;;;;;13.77;11.70;;;21.20;99.90;;;;;;5012104;28;20045;-78
2022/08/15 04:25:51;;;;;;;15.25;12.65;;;21.20;99.90;;;;;;5012329;28;20049;-77
2022/08/15 04:28:37;;;;;;;19.85;15.38;;;21.20;99.90;;;;;;5030565;28;20061;-77
2022/08/15 04:31:25;;;;;;;18.77;14.95;;;21.20;99.90;;;;;;5030812;28;20045;-77
2022/08/15 04:34:11;;;;;;;20.23;14.27;;;21.20;99.90;;;;;;5011286;28;20513;-77
2022/08/15 04:36:58;;;;;;;17.52;14.60;;;21.20;99.90;;;;;;5015476;28;20041;-77
2022/08/15 04:39:44;;;;;;;15.48;13.55;;;21.30;99.90;;;;;;5032788;28;20049;-77
2022/08/15 04:42:30;;;;;;;16.45;11.93;;;21.30;99.90;;;;;;5015978;28;20056;-77
2022/08/15 04:45:16;;;;;;;16.48;13.38;;;21.30;99.90;;;;;;5016761;28;20145;-78
2022/08/15 04:48:03;;;;;;;15.75;11.88;;;21.30;99.90;;;;;;5033903;28;20493;-78
2022/08/15 04:50:50;;;;;;;14.82;12.05;;;21.40;99.90;;;;;;5039982;28;20061;-78
2022/08/15 04:53:38;;;;;;;19.48;14.05;;;21.40;99.90;;;;;;5052649;28;20062;-78
2022/08/15 04:56:24;;;;;;;19.25;16.10;;;21.40;99.90;;;;;;5035310;28;20512;-78
2022/08/15 04:59:10;;;;;;;17.15;13.90;;;21.40;99.90;;;;;;5035281;28;20091;-79
2022/08/15 05:01:56;;;;;;;23.65;15.18;;;21.40;99.90;;;;;;5034782;28;20159;-77
2022/08/15 05:04:42;;;;;;;18.48;14.98;;;21.40;99.90;;;;;;5034763;28;20400;-77
2022/08/15 05:07:29;;;;;;;15.13;13.52;;;21.50;99.90;;;;;;5038055;28;20041;-78
2022/08/15 05:10:16;;;;;;;23.48;15.80;;;21.50;99.90;;;;;;5052772;28;20063;-77
2022/08/15 05:13:19;;;;;;;13.93;12.05;;;21.50;99.90;;;;;;5053037;28;20566;-77
2022/08/15 05:16:07;;;;;;;17.42;14.07;;;21.60;99.90;;;;;;5052756;28;20110;-77
2022/08/15 05:18:54;;;;;;;17.02;14.80;;;21.60;99.90;;;;;;5034902;28;20132;-79
2022/08/15 05:21:40;;;;;;;14.68;12.60;;;21.70;99.90;;;;;;5029484;28;20076;-76
2022/08/15 05:24:27;;;;;;;16.95;14.27;;;21.80;99.90;;;;;;5052029;28;20048;-77
2022/08/15 05:27:13;;;;;;;19.15;14.75;;;21.90;99.90;;;;;;5052687;28;20049;-77
2022/08/15 05:29:59;;;;;;;19.77;13.98;;;21.90;99.90;;;;;;5036463;28;20041;-78
2022/08/15 05:32:46;;;;;;;18.42;14.50;;;22.00;99.90;;;;;;5051354;28;20106;-78
2022/08/15 05:35:34;;;;;;;19.50;14.05;;;22.00;99.90;;;;;;5037035;28;20141;-79
2022/08/15 05:38:23;;;;;;;19.13;15.50;;;22.10;99.90;;;;;;5051604;28;20519;-78
2022/08/15 05:41:24;;;;;;;16.13;14.38;;;22.20;99.90;;;;;;5052350;28;20528;-77
2022/08/15 05:44:29;;;;;;;19.58;15.45;;;22.20;99.90;;;;;;5033953;28;20045;-76
2022/08/15 05:47:16;;;;;;;15.27;13.13;;;22.20;99.90;;;;;;5037512;28;20049;-77
2022/08/15 05:50:30;;;;;;;21.98;14.75;;;22.20;99.90;;;;;;5052302;28;20052;-83
2022/08/15 05:53:16;;;;;;;15.80;13.48;;;22.30;99.90;;;;;;5039486;28;20056;-81
2022/08/15 05:56:24;;;;;;;18.48;15.43;;;22.40;99.90;;;;;;5055081;28;20048;-81
2022/08/15 05:59:15;;;;;;;19.70;14.07;;;22.50;99.90;;;;;;5038605;28;20076;-80
2022/08/15 06:02:11;;;;;;;20.05;15.13;;;22.70;99.90;;;;;;5038566;28;20056;-82
2022/08/15 06:05:13;;;;;;;17.60;13.82;;;22.70;99.90;;;;;;5051570;28;20382;-81
2022/08/15 06:08:07;;;;;;;17.02;13.93;;;22.80;99.90;;;;;;5053798;28;20045;-80
2022/08/15 06:11:02;;;;;;;17.35;13.50;;;23.00;99.90;;;;;;5052228;28;20131;-80
2022/08/15 06:13:54;;;;;;;;;;;23.10;99.90;;;;;;5020627;28;20103;-82
2022/08/15 06:16:46;;;;;;;15.77;13.25;;;23.30;99.90;;;;;;5046730;28;19931;-82
2022/08/15 06:19:37;;;;;;;19.88;14.73;;;23.40;99.90;;;;;;5045669;28;20123;-81
2022/08/15 06:22:57;;;;;;;15.65;12.27;;;23.50;99.90;;;;;;5033577;28;20481;-84
2022/08/15 06:26:07;;;;;;;17.63;14.50;;;23.70;99.90;;;;;;5052273;28;20041;-81
2022/08/15 06:29:11;;;;;;;18.70;13.18;;;23.80;99.90;;;;;;5035152;28;20448;-88
2022/08/15 06:32:13;;;;;;;14.77;12.15;;;23.90;99.90;;;;;;5053468;28;20102;-82
2022/08/15 06:35:10;;;;;;;18.98;12.55;;;24.10;99.90;;;;;;5052558;28;20098;-91
2022/08/15 06:38:19;;;;;;;16.67;13.18;;;24.40;99.90;;;;;;5051330;28;20120;-83
2022/08/15 06:41:15;;;;;;;15.90;12.35;;;24.50;99.90;;;;;;5051825;28;20049;-82
2022/08/15 06:44:02;;;;;;;15.55;12.68;;;24.80;99.90;;;;;;5050906;28;20049;-82
2022/08/15 06:46:51;;;;;;;16.25;13.18;;;25.00;99.90;;;;;;5038899;28;20048;-86
2022/08/15 06:49:47;;;;;;;16.77;13.63;;;25.00;99.90;;;;;;5034242;28;20049;-81
2022/08/15 06:52:34;;;;;;;16.08;13.88;;;25.00;99.90;;;;;;5044985;28;20045;-82
2022/08/15 06:55:23;;;;;;;16.45;14.00;;;25.00;99.90;;;;;;5053832;28;20140;-82
2022/08/15 06:58:16;;;;;;;15.10;12.98;;;25.00;99.90;;;;;;5056352;28;20138;-84
2022/08/15 07:01:27;;;;;;;16.58;12.23;;;25.20;99.90;;;;;;5054565;28;20463;-84
2022/08/15 07:04:13;;;;;;;15.02;11.50;;;25.50;99.90;;;;;;5051601;28;20045;-86
2022/08/15 07:07:08;;;;;;;12.38;10.35;;;25.80;99.90;;;;;;5053441;28;20497;-87
2022/08/15 07:10:12;;;;;;;14.48;10.27;;;26.00;99.90;;;;;;5034009;28;20040;-86
2022/08/15 07:13:12;;;;;;;13.20;10.03;;;26.20;99.30;;;;;;5052171;28;20045;-82
2022/08/15 07:16:03;;;;;;;15.13;11.18;;;26.30;99.20;;;;;;5053605;28;20060;-83
2022/08/15 07:18:53;;;;;;;17.95;14.25;;;26.40;99.10;;;;;;5039801;28;20558;-80
2022/08/15 07:21:39;;;;;;;18.52;13.98;;;26.40;99.20;;;;;;5040745;28;20124;-82
2022/08/15 07:24:29;;;;;;;16.05;12.18;;;26.40;99.30;;;;;;5055158;28;20088;-81
2022/08/15 07:27:24;;;;;;;15.95;14.23;;;26.50;99.60;;;;;;5051309;28;20060;-82
2022/08/15 07:30:26;;;;;;;17.25;13.18;;;26.40;99.40;;;;;;5012876;28;20050;-86
2022/08/15 07:33:29;;;;;;;18.08;14.45;;;26.30;99.30;;;;;;4994489;28;20049;-83
2022/08/15 07:36:28;;;;;;;19.50;14.80;;;26.40;99.00;;;;;;4994379;28;20054;-87
2022/08/15 07:39:28;;;;;;;17.45;15.57;;;26.30;99.10;;;;;;4995206;28;20444;-84
2022/08/15 07:42:20;;;;;;;19.13;15.52;;;26.40;99.40;;;;;;5012103;28;20485;-85
2022/08/15 07:45:25;;;;;;;18.50;15.90;;;26.50;99.40;;;;;;4993772;28;20091;-85
2022/08/15 07:48:22;;;;;;;17.25;13.77;;;26.70;99.10;;;;;;4996570;28;20046;-85
2022/08/15 07:51:14;;;;;;;16.67;13.25;;;26.80;98.40;;;;;;5019175;28;20519;-82
2022/08/15 07:54:04;;;;;;;15.35;12.52;;;27.00;98.30;;;;;;5033542;28;20045;-82
2022/08/15 07:56:54;;;;;;;14.25;10.52;;;27.10;97.60;;;;;;5037664;28;20041;-82
2022/08/15 07:59:40;;;;;;;14.93;12.25;;;27.20;97.70;;;;;;5032158;28;20520;-82
2022/08/15 08:02:40;;;;;;;12.07;10.88;;;27.40;97.40;;;;;;5051730;28;20049;-82
2022/08/15 08:05:31;;;;;;;13.57;12.07;;;27.50;97.40;;;;;;5049652;28;20049;-84
2022/08/15 08:08:20;;;;;;;16.42;12.68;;;27.60;97.10;;;;;;5049892;28;20040;-82
2022/08/15 08:11:20;;;;;;;16.77;12.93;;;27.80;96.80;;;;;;5052419;28;20718;-83
2022/08/15 08:14:18;;;;;;;15.77;13.30;;;27.80;96.20;;;;;;5053458;28;20052;-83
2022/08/15 08:17:13;;;;;;;14.50;12.50;;;27.80;96.00;;;;;;5032933;28;20041;-89
2022/08/15 08:20:17;;;;;;;;;;;27.90;95.90;;;;;;5055411;28;20048;-89
2022/08/15 08:23:21;;;;;;;15.63;11.52;;;28.00;96.00;;;;;;5036040;28;20019;-86
2022/08/15 08:26:29;;;;;;;15.27;13.48;;;28.30;96.00;;;;;;5022830;28;20532;-88
2022/08/15 08:29:33;;;;;;;14.13;12.60;;;28.50;94.50;;;;;;5020319;28;20052;-87
2022/08/15 08:32:39;;;;;;;14.02;11.32;;;28.70;95.00;;;;;;5052471;28;20461;-89
2022/08/15 08:35:52;;;;;;;14.88;12.23;;;28.90;94.60;;;;;;5032939;28;20057;-87
2022/08/15 08:38:51;;;;;;;15.57;12.75;;;28.90;94.10;;;;;;5033006;28;20396;-83
2022/08/15 08:41:45;;;;;;;22.45;13.35;;;28.90;94.20;;;;;;5030964;28;20416;-83
2022/08/15 08:44:51;;;;;;;14.60;10.93;;;28.80;94.10;;;;;;5015852;28;20045;-84
2022/08/15 08:47:44;;;;;;;16.45;13.43;;;28.90;94.10;;;;;;4998355;28;20042;-82
2022/08/15 08:50:30;;;;;;;16.65;14.40;;;28.80;93.70;;;;;;5036072;28;20450;-83
2022/08/15 08:53:28;;;;;;;16.65;12.95;;;28.90;93.90;;;;;;5030105;28;20120;-84
2022/08/15 08:56:22;;;;;;;14.32;11.63;;;28.70;93.90;;;;;;5013644;28;20076;-86
2022/08/15 08:59:19;;;;;;;15.75;12.80;;;28.60;93.90;;;;;;5002527;28;20547;-79
2022/08/15 09:02:20;;;;;;;17.58;13.13;;;28.60;93.90;;;;;;5027261;28;20064;-81
2022/08/15 09:05:17;;;;;;;16.60;11.13;;;28.80;93.70;;;;;;5010956;28;20081;-79
2022/08/15 09:08:16;;;;;;;14.98;10.20;;;28.70;93.60;;;;;;5030653;28;20049;-80
2022/08/15 09:11:19;;;;;;;19.27;10.15;;;28.60;93.70;;;;;;5011388;28;20144;-81
2022/08/15 09:14:35;;;;;;;12.48;9.57;;;28.60;93.30;;;;;;5028425;28;20084;-78
2022/08/15 09:17:24;;;;;;;14.73;9.18;;;28.50;93.40;;;;;;5030787;28;20041;-80
2022/08/15 09:20:17;;;;;;;17.40;9.77;;;28.50;93.70;;;;;;5029331;28;20421;-78
2022/08/15 09:23:08;;;;;;;10.95;8.82;;;28.40;93.00;;;;;;5030638;28;20057;-80
2022/08/15 09:26:07;;;;;;;26.50;9.60;;;28.40;93.20;;;;;;5029653;28;20144;-79
2022/08/15 09:29:14;;;;;;;24.92;9.43;;;28.40;93.50;;;;;;5016297;28;20386;-77
2022/08/15 09:32:28;;;;;;;13.88;9.35;;;28.40;93.40;;;;;;5034551;28;20583;-78
2022/08/15 09:35:34;;;;;;;15.27;9.80;;;28.40;93.40;;;;;;5031395;28;20049;-79
2022/08/15 09:38:42;;;;;;;13.10;9.38;;;28.40;93.70;;;;;;5018355;28;20140;-85
2022/08/15 09:41:44;;;;;;;12.90;9.88;;;28.50;93.80;;;;;;5033536;28;20051;-83
2022/08/15 09:44:49;;;;;;;12.23;8.82;;;28.60;93.90;;;;;;5015221;28;20046;-82
2022/08/15 09:48:03;;;;;;;12.57;9.43;;;29.20;94.20;;;;;;5036038;28;20056;-83
2022/08/15 09:51:01;;;;;;;12.43;9.70;;;29.50;93.30;;;;;;5016175;28;20095;-81
2022/08/15 09:53:59;;;;;;;12.68;9.45;;;29.70;93.00;;;;;;5015349;28;20103;-81
2022/08/15 09:56:47;;;;;;;14.15;10.35;;;29.90;93.10;;;;;;5033680;28;20053;-79
2022/08/15 09:59:35;;;;;;;14.13;8.93;;;30.00;92.80;;;;;;5014882;28;20516;-85
2022/08/15 10:02:26;;;;;;;15.60;9.38;;;30.10;92.50;;;;;;5017282;28;20053;-84
2022/08/15 10:05:22;;;;;;;11.43;9.18;;;30.20;92.50;;;;;;5003146;28;20048;-80
2022/08/15 10:08:11;;;;;;;12.88;8.98;;;30.20;92.70;;;;;;5010092;28;20045;-86
2022/08/15 10:11:11;;;;;;;11.52;9.80;;;30.40;92.30;;;;;;5013712;28;20046;-82
2022/08/15 10:14:06;;;;;;;11.15;9.30;;;30.60;91.90;;;;;;5013946;28;20394;-85
2022/08/15 10:17:04;;;;;;;13.52;8.93;;;30.80;91.70;;;;;;4995708;28;20374;-82
2022/08/15 10:19:51;;;;;;;12.13;8.57;;;31.00;91.70;;;;;;5001401;28;20050;-87
2022/08/15 10:22:44;;;;;;;11.13;10.02;;;31.50;91.60;;;;;;5016561;28;20045;-84
2022/08/15 10:25:39;;;;;;;14.48;8.65;;;31.80;90.10;;;;;;5024217;28;20084;-86
2022/08/15 10:28:26;;;;;;;13.23;10.10;;;32.00;89.00;;;;;;4998377;28;20057;-84
2022/08/15 10:31:15;;;;;;;13.48;8.93;;;32.20;88.90;;;;;;5031926;28;20175;-81
2022/08/15 10:34:02;;;;;;;15.18;10.20;;;32.40;89.00;;;;;;5002666;28;20046;-82
2022/08/15 10:37:15;;;;;;;13.25;8.73;;;32.30;88.70;;;;;;4998622;28;20056;-80
2022/08/15 10:40:11;;;;;;;14.10;8.02;;;32.30;88.80;;;;;;4997013;28;20445;-82
2022/08/15 10:43:32;;;;;;;9.68;8.68;;;32.40;88.00;;;;;;5027814;28;20045;-80
2022/08/15 10:46:47;;;;;;;12.15;7.20;;;32.30;87.30;;;;;;4996428;28;20046;-81
2022/08/15 10:49:55;;;;;;;9.95;7.60;;;32.20;88.20;;;;;;5013084;28;20048;-86
2022/08/15 10:53:06;;;;;;;11.52;7.88;;;32.20;86.70;;;;;;4994899;28;20094;-82
2022/08/15 10:55:52;;;;;;;9.52;6.30;;;32.10;86.70;;;;;;4995439;28;20500;-81
2022/08/15 10:58:39;;;;;;;9.20;5.60;;;31.90;85.20;;;;;;5015476;28;20041;-81
2022/08/15 11:01:32;;;;;;;10.13;6.13;;;31.80;83.90;;;;;;5003796;28;20054;-82
2022/08/15 11:04:35;;;;;;;8.57;6.00;;;31.80;83.20;;;;;;5005325;28;20048;-82
2022/08/15 11:07:33;;;;;;;9.02;6.47;;;31.90;83.60;;;;;;5023621;28;20448;-81
2022/08/15 11:10:22;;;;;;;9.27;6.45;;;32.00;83.40;;;;;;4993487;28;20060;-81
2022/08/15 11:13:14;;;;;;;9.25;6.10;;;32.00;84.50;;;;;;5000452;28;20084;-81
2022/08/15 11:16:10;;;;;;;9.65;7.07;;;32.00;85.10;;;;;;5014905;28;20045;-82
2022/08/15 11:19:11;;;;;;;11.05;7.50;;;32.30;84.70;;;;;;5013233;28;20042;-80
2022/08/15 11:22:01;;;;;;;11.40;8.45;;;32.80;84.40;;;;;;5017145;28;20104;-81
2022/08/15 11:25:00;;;;;;;12.55;8.35;;;33.50;82.50;;;;;;5025085;28;20076;-80
2022/08/15 11:27:58;;;;;;;10.55;8.48;;;33.80;80.50;;;;;;5002799;28;20049;-81
2022/08/15 11:30:45;;;;;;;12.15;9.93;;;33.90;80.20;;;;;;5025927;28;21015;-82
2022/08/15 11:33:44;;;;;;;15.30;8.90;;;33.80;78.60;;;;;;4983860;28;20042;-79
2022/08/15 11:36:31;;;;;;;11.48;7.85;;;33.80;77.90;;;;;;4996576;28;20141;-80
2022/08/15 11:39:19;;;;;;;9.50;8.25;;;34.00;80.80;;;;;;4991907;28;20161;-79
2022/08/15 11:42:09;;;;;;;15.13;8.73;;;34.10;79.60;;;;;;4992620;28;20120;-79
2022/08/15 11:45:05;;;;;;;10.15;8.80;;;34.00;78.50;;;;;;4993276;28;20054;-84
2022/08/15 11:47:55;;;;;;;10.80;8.88;;;33.60;79.00;;;;;;4991059;28;20088;-80
2022/08/15 11:51:06;;;;;;;10.40;8.50;;;33.30;78.90;;;;;;4993625;28;20042;-79
2022/08/15 11:54:13;;;;;;;9.80;8.80;;;33.00;80.60;;;;;;4994111;28;20053;-81
2022/08/15 11:57:03;;;;;;;10.52;9.18;;;32.60;80.90;;;;;;5011173;28;20576;-83
2022/08/15 12:00:10;;;;;;;11.13;9.60;;;32.00;81.10;;;;;;5011794;28;20140;-80
2022/08/15 12:02:57;;;;;;;12.68;9.50;;;31.70;82.90;;;;;;4996018;28;20053;-80
2022/08/15 12:05:46;;;;;;;10.93;9.75;;;31.50;84.70;;;;;;5013836;28;20116;-78
2022/08/15 12:08:33;;;;;;;11.45;9.65;;;31.40;85.50;;;;;;5012259;28;20128;-83
2022/08/15 12:11:23;;;;;;;11.98;10.20;;;31.40;86.30;;;;;;4982742;28;20069;-83
2022/08/15 12:14:19;;;;;;;12.35;9.45;;;31.30;87.70;;;;;;4994508;28;20490;-86
2022/08/15 12:17:07;;;;;;;12.05;10.38;;;31.10;88.20;;;;;;4980385;28;20061;-88
2022/08/15 12:19:55;;;;;;;14.68;10.10;;;31.00;88.90;;;;;;5010293;28;20041;-88
2022/08/15 12:22:43;;;;;;;12.93;10.32;;;30.90;89.90;;;;;;4980285;28;20058;-83
2022/08/15 12:25:32;;;;;;;17.50;10.52;;;30.90;90.20;;;;;;5012668;28;20046;-85
2022/08/15 12:28:19;;;;;;;15.55;11.00;;;30.90;90.40;;;;;;5009189;28;20533;-80
2022/08/15 12:31:22;;;;;;;13.15;10.45;;;30.80;90.50;;;;;;5010651;28;20092;-80
2022/08/15 12:34:21;;;;;;;18.02;10.35;;;30.60;90.80;;;;;;4980097;28;20054;-81
2022/08/15 12:37:11;;;;;;;15.43;10.93;;;30.50;90.60;;;;;;4980392;28;20046;-82
2022/08/15 12:40:03;;;;;;;13.68;9.75;;;30.30;90.70;;;;;;5011333;28;20046;-82
2022/08/15 12:42:50;;;;;;;15.27;10.35;;;30.40;91.20;;;;;;5013399;28;20093;-81
2022/08/15 12:45:38;;;;;;;13.02;10.52;;;30.40;91.30;;;;;;5011020;28;20050;-82
2022/08/15 12:48:28;;;;;;;11.90;10.32;;;30.60;91.40;;;;;;5010666;28;20073;-81
2022/08/15 12:51:17;;;;;;;12.02;10.55;;;30.60;91.60;;;;;;4993026;28;20441;-82
2022/08/15 12:54:03;;;;;;;13.55;10.02;;;30.60;92.00;;;;;;4983486;28;20064;-80
2022/08/15 12:56:50;;;;;;;13.68;10.48;;;31.00;92.70;;;;;;5011958;28;20623;-80
2022/08/15 12:59:36;;;;;;;13.32;11.25;;;31.30;92.90;;;;;;4997470;28;20105;-81
2022/08/15 13:02:24;;;;;;;12.40;10.30;;;31.40;92.70;;;;;;4988793;28;20073;-81
2022/08/15 13:05:23;;;;;;;16.73;11.32;;;31.30;92.60;;;;;;5015211;28;20046;-83
2022/08/15 13:08:09;;;;;;;18.25;16.35;;;31.20;92.60;;;;;;4998565;28;20045;-82
2022/08/15 13:10:55;;;;;;;23.02;18.85;;;30.90;93.30;;;;;;5016981;28;20046;-80
2022/08/15 13:13:42;;;;;;;21.20;18.92;;;30.70;94.10;;;;;;5016549;28;20046;-82
2022/08/15 13:16:35;;;;;;;21.80;17.13;;;30.40;94.80;;;;;;5017479;28;20053;-81
2022/08/15 13:19:29;;;;;;;22.08;16.13;;;30.10;95.60;;;;;;4998335;28;20494;-82
2022/08/15 13:25:21;;;;;;;19.35;14.88;;;29.80;95.80;;;;;;5014611;28;20054;-81
2022/08/15 13:28:07;;;;;;;18.10;14.73;;;29.70;95.60;;;;;;5016095;28;20050;-81
2022/08/15 13:30:53;;;;;;;18.27;12.80;;;29.50;96.10;;;;;;5014059;28;20042;-81
2022/08/15 13:33:41;;;;;;;16.42;14.65;;;29.40;96.90;;;;;;4996143;28;20136;-83
2022/08/15 13:36:28;;;;;;;17.38;15.30;;;29.40;97.50;;;;;;4996326;28;20052;-81
2022/08/15 13:39:21;;;;;;;15.43;12.75;;;29.30;97.20;;;;;;4969669;28;20041;-81
2022/08/15 13:42:07;;;;;;;16.10;12.27;;;29.20;97.20;;;;;;5013007;28;20046;-81
2022/08/15 13:44:54;;;;;;;13.52;11.32;;;29.10;96.90;;;;;;4996752;28;20054;-82
2022/08/15 13:47:49;;;;;;;12.40;10.40;;;28.70;96.80;;;;;;5014601;28;20061;-81
2022/08/15 13:50:38;;;;;;;13.63;10.68;;;28.70;97.20;;;;;;5014549;28;20050;-81
2022/08/15 13:53:24;;;;;;;12.43;9.13;;;28.50;96.30;;;;;;5015315;28;20417;-82
2022/08/15 13:56:10;;;;;;;11.20;9.27;;;28.40;95.60;;;;;;5013624;28;20413;-80
2022/08/15 13:58:57;;;;;;;14.38;8.20;;;28.20;95.70;;;;;;5015122;28;20405;-81
2022/08/15 14:01:50;;;;;;;14.02;8.68;;;28.30;95.80;;;;;;4983847;28;20080;-81
2022/08/15 14:04:39;;;;;;;13.68;10.38;;;28.40;95.70;;;;;;5017222;28;20130;-81
2022/08/15 14:07:29;;;;;;;9.73;6.28;;;28.50;95.30;;;;;;4996085;28;20084;-81
2022/08/15 14:10:18;;;;;;;10.82;5.82;;;28.70;95.20;;;;;;4981757;28;20493;-80
2022/08/15 14:13:06;;;;;;;8.88;5.25;;;29.10;94.10;;;;;;4994256;28;20467;-83
2022/08/15 14:15:54;;;;;;;7.63;4.65;;;29.30;93.90;;;;;;4995333;28;20042;-82
2022/08/15 14:18:42;;;;;;;6.80;4.43;;;29.30;93.50;;;;;;4999441;28;20049;-82
2022/08/15 14:21:28;;;;;;;8.13;4.05;;;29.50;92.90;;;;;;5012788;28;20045;-82
2022/08/15 14:24:14;;;;;;;9.88;5.50;;;29.70;92.90;;;;;;4995119;28;20046;-81
2022/08/15 14:27:02;;;;;;;11.02;4.55;;;30.30;92.40;;;;;;5012482;28;20054;-80
2022/08/15 14:29:50;;;;;;;7.63;4.03;;;31.20;92.10;;;;;;5012784;28;20137;-81
2022/08/15 14:32:36;;;;;;;6.60;3.30;;;32.10;90.10;;;;;;4994590;28;20057;-81
2022/08/15 14:35:22;;;;;;;6.88;3.40;;;32.60;88.70;;;;;;4994629;28;20115;-82
2022/08/15 14:38:09;;;;;;;11.55;4.68;;;33.60;85.70;;;;;;4995482;28;20125;-82
2022/08/15 14:40:56;;;;;;;9.13;3.70;;;33.50;85.00;;;;;;5012946;28;20049;-81
2022/08/15 14:43:44;;;;;;;5.90;3.25;;;33.20;85.90;;;;;;4994903;28;20057;-82